Time;durP1;ratioP1;P1;durP2;ratioP2;P2;SDS_P1;SDS_P2;PMS_P1;PMS_P2;Temp;Humidity;BMP_temperature;BMP_pressure;BME280_temperature;BME280_humidity;BME280_pressure;Samples;Min_cycle;Max_cycle;Signal;HPM_P1;HPM_P2
2023/09/24 00:01:17;;;;;;;10.45;4.60;;;;;;;22.56;52.38;101414.85;2304969;76;50190;-75
2023/09/24 00:04:19;;;;;;;8.00;4.25;;;;;;;22.55;52.37;101414.52;2278123;76;51147;-74
2023/09/24 00:07:21;;;;;;;7.95;4.12;;;;;;;22.54;52.38;101422.29;2320623;76;50360;-75
2023/09/24 00:10:24;;;;;;;9.00;4.25;;;;;;;22.56;52.36;101428.34;2321102;76;51439;-75
2023/09/24 00:13:27;;;;;;;6.92;4.05;;;;;;;22.56;52.35;101433.73;2320885;76;51543;-74
2023/09/24 00:16:29;;;;;;;7.12;4.50;;;;;;;22.56;52.35;101437.26;2342340;76;51686;-74
2023/09/24 00:19:31;;;;;;;7.92;4.00;;;;;;;22.52;52.39;101440.00;2322133;76;52975;-74
2023/09/24 00:22:34;;;;;;;6.95;3.90;;;;;;;22.53;52.36;101443.52;2328453;76;51576;-74
2023/09/24 00:25:36;;;;;;;8.05;4.12;;;;;;;22.51;52.39;101438.34;2320941;76;50043;-74
2023/09/24 00:28:38;;;;;;;7.47;4.03;;;;;;;22.49;52.47;101449.00;2295036;76;51226;-75
2023/09/24 00:31:40;;;;;;;7.62;3.87;;;;;;;22.49;52.41;101445.78;2320733;76;50649;-75
2023/09/24 00:34:42;;;;;;;6.42;3.72;;;;;;;22.47;52.44;101457.27;2348941;75;51432;-73
2023/09/24 00:37:45;;;;;;;7.97;4.03;;;;;;;22.46;52.43;101452.91;2320706;76;50604;-74
2023/09/24 00:40:47;;;;;;;10.18;3.45;;;;;;;22.44;52.50;101456.30;2320951;76;51470;-75
2023/09/24 00:43:49;;;;;;;8.08;4.10;;;;;;;22.43;52.54;101456.47;2321809;76;51432;-75
2023/09/24 00:46:52;;;;;;;6.12;4.03;;;;;;;22.41;52.54;101453.98;2349154;75;50288;-74
2023/09/24 00:49:54;;;;;;;9.40;3.62;;;;;;;22.40;52.62;101459.04;2342145;76;50319;-74
2023/09/24 00:52:56;;;;;;;9.40;3.87;;;;;;;22.39;52.63;101466.81;2302286;76;51148;-75
2023/09/24 00:55:58;;;;;;;10.30;3.87;;;;;;;22.40;52.64;101465.78;2342287;76;50582;-76
2023/09/24 00:59:01;;;;;;;7.78;3.95;;;;;;;22.38;52.63;101463.81;2342346;76;50399;-74
2023/09/24 01:02:03;;;;;;;7.83;3.60;;;;;;;22.37;52.65;101462.95;2342539;76;50618;-75
2023/09/24 01:05:10;;;;;;;6.55;3.47;;;;;;;22.36;52.68;101472.07;2325631;75;51398;-75
2023/09/24 01:08:10;;;;;;;6.45;3.50;;;;;;;22.22;52.79;101455.42;2306663;76;22299;-74
2023/09/24 01:11:12;;;;;;;6.67;3.62;;;;;;;22.22;52.79;101455.42;2318901;76;50246;-74
2023/09/24 01:14:14;;;;;;;5.67;3.40;;;;;;;22.34;52.69;101478.16;2304839;76;51491;-74
2023/09/24 01:17:17;;;;;;;4.47;3.05;;;;;;;22.33;52.72;101480.55;2279772;76;50964;-73
2023/09/24 01:20:22;;;;;;;5.72;3.72;;;;;;;22.33;52.72;101484.59;2336824;76;50237;-75
2023/09/24 01:23:24;;;;;;;7.37;3.40;;;;;;;22.33;52.78;101489.98;2307690;76;51565;-74
2023/09/24 01:26:27;;;;;;;7.72;3.85;;;;;;;22.34;52.79;101497.03;2276266;77;52179;-74
2023/09/24 01:29:29;;;;;;;6.72;3.50;;;;;;;22.33;52.81;101508.86;2302034;77;51468;-74
2023/09/24 01:32:31;;;;;;;4.35;3.27;;;;;;;22.32;52.80;101509.86;2278063;77;51761;-75
2023/09/24 01:35:36;;;;;;;4.92;3.30;;;;;;;22.32;52.85;101513.07;2279044;77;50673;-76
2023/09/24 01:38:41;;;;;;;4.87;3.60;;;;;;;22.31;52.83;101508.20;2297803;77;50421;-76
2023/09/24 01:41:45;;;;;;;5.92;3.30;;;;;;;22.29;52.82;101519.67;2276272;77;51778;-76
2023/09/24 01:44:47;;;;;;;6.35;3.60;;;;;;;22.31;52.77;101520.84;2297557;76;51531;-75
2023/09/24 01:47:50;;;;;;;5.37;3.42;;;;;;;22.28;52.83;101530.14;2297619;77;50760;-75
2023/09/24 01:50:52;;;;;;;7.50;3.40;;;;;;;22.28;52.83;101526.62;2249781;76;50900;-75
2023/09/24 01:53:55;;;;;;;6.40;3.58;;;;;;;22.26;52.95;101526.80;2317356;76;50261;-74
2023/09/24 01:56:57;;;;;;;6.37;3.50;;;;;;;22.27;52.95;101530.32;2257931;77;51665;-75
2023/09/24 02:00:05;;;;;;;6.42;3.37;;;;;;;22.26;52.91;101529.48;2308987;76;51515;-75
2023/09/24 02:03:10;;;;;;;8.23;3.83;;;;;;;22.27;52.97;101540.62;2282990;77;22229;-75
2023/09/24 02:06:12;;;;;;;6.97;3.02;;;;;;;22.25;53.02;101539.96;2284135;77;22404;-75
2023/09/24 02:09:16;;;;;;;6.28;3.40;;;;;;;22.26;52.98;101554.27;2308800;76;50262;-75
2023/09/24 02:12:19;;;;;;;6.45;2.95;;;;;;;22.26;53.09;101555.10;2304534;77;50746;-74
2023/09/24 02:15:23;;;;;;;5.30;3.42;;;;;;;22.24;53.19;101555.80;2283317;77;50511;-75
2023/09/24 02:18:27;;;;;;;8.35;3.40;;;;;;;22.24;53.17;101564.40;2308928;76;51506;-75
2023/09/24 02:21:30;;;;;;;6.67;3.05;;;;;;;22.25;53.15;101566.09;2292863;76;25223;-74
2023/09/24 02:24:35;;;;;;;6.00;3.25;;;;;;;22.22;53.21;101563.25;2290821;76;51503;-74
2023/09/24 02:27:38;;;;;;;4.92;3.20;;;;;;;22.23;53.19;101565.44;2291538;76;22281;-74
2023/09/24 02:30:40;;;;;;;5.20;3.00;;;;;;;22.23;53.17;101563.56;2266198;76;51029;-74
2023/09/24 02:33:43;;;;;;;3.92;2.72;;;;;;;22.23;53.17;101568.13;2290905;76;50723;-74
2023/09/24 02:36:45;;;;;;;3.87;2.50;;;;;;;22.22;53.21;101569.13;2316658;76;50480;-74
2023/09/24 02:39:47;;;;;;;6.25;2.72;;;;;;;22.21;53.18;101573.69;2291080;76;50372;-75
2023/09/24 02:42:52;;;;;;;5.83;3.30;;;;;;;22.21;53.20;101576.39;2316502;76;50728;-74
2023/09/24 02:45:56;;;;;;;4.37;3.00;;;;;;;22.21;53.17;101572.34;2292641;76;52675;-75
2023/09/24 02:48:58;;;;;;;4.33;2.65;;;;;;;22.20;53.24;101575.24;2291088;76;50321;-75
2023/09/24 02:52:01;;;;;;;5.33;3.15;;;;;;;22.18;53.23;101574.03;2292677;76;50288;-75
2023/09/24 02:55:04;;;;;;;5.58;3.00;;;;;;;22.18;53.24;101582.13;2306250;76;51218;-75
2023/09/24 02:58:07;;;;;;;3.22;2.58;;;;;;;22.18;53.21;101587.00;2305198;76;50257;-75
2023/09/24 03:01:20;;;;;;;5.22;3.05;;;;;;;22.17;53.21;101589.90;2318701;76;51622;-74
2023/09/24 03:04:17;;;;;;;4.53;2.70;;;;;;;22.17;53.21;101597.98;2331034;75;23665;-75
2023/09/24 03:07:20;;;;;;;5.95;2.80;;;;;;;22.15;53.24;101597.33;2332793;76;51498;-75
2023/09/24 03:10:22;;;;;;;4.47;2.77;;;;;;;22.16;53.19;101603.03;2332914;76;51608;-75
2023/09/24 03:13:24;;;;;;;3.83;2.58;;;;;;;22.14;53.21;101602.37;2332691;76;50569;-75
2023/09/24 03:16:28;;;;;;;5.53;2.70;;;;;;;22.11;53.19;101603.57;2332875;76;51452;-76
2023/09/24 03:19:30;;;;;;;5.67;2.77;;;;;;;22.13;53.15;101619.58;2306379;76;50983;-76
2023/09/24 03:22:33;;;;;;;4.83;2.60;;;;;;;22.12;53.09;101617.39;2310880;76;50204;-75
2023/09/24 03:25:35;;;;;;;4.20;2.58;;;;;;;22.12;53.12;101621.95;2290936;76;50649;-76
2023/09/24 03:28:37;;;;;;;3.83;2.72;;;;;;;22.11;53.08;101622.95;2318431;76;50270;-74
2023/09/24 03:31:39;;;;;;;5.03;2.55;;;;;;;22.10;53.20;101626.69;2290933;76;50637;-75
2023/09/24 03:34:44;;;;;;;3.72;2.72;;;;;;;22.11;53.19;101629.70;2265567;76;52520;-74
2023/09/24 03:37:45;;;;;;;3.58;2.62;;;;;;;22.12;53.12;101635.44;2291330;76;22169;-75
2023/09/24 03:40:48;;;;;;;3.92;2.50;;;;;;;22.11;53.10;101627.83;2290979;76;51500;-75
2023/09/24 03:43:50;;;;;;;4.72;2.62;;;;;;;22.11;53.08;101632.39;2260291;76;52365;-75
2023/09/24 03:46:53;;;;;;;4.35;2.80;;;;;;;22.10;53.16;101636.12;2291109;76;51721;-76
2023/09/24 03:49:55;;;;;;;4.78;2.80;;;;;;;22.09;53.10;101628.55;2318248;76;50679;-75
2023/09/24 03:52:57;;;;;;;3.45;2.75;;;;;;;22.08;53.14;101638.98;2295431;76;51470;-75
2023/09/24 03:55:59;;;;;;;5.28;2.62;;;;;;;22.07;53.14;101644.58;2318589;76;51496;-75
2023/09/24 03:59:02;;;;;;;6.45;3.00;;;;;;;22.08;53.19;101650.28;2318620;76;51539;-74
2023/09/24 04:02:08;;;;;;;6.83;2.45;;;;;;;22.08;53.11;101650.28;2304865;76;50621;-74
2023/09/24 04:05:14;;;;;;;4.85;2.67;;;;;;;22.08;53.19;101661.06;2309307;76;51636;-75
2023/09/24 04:08:14;;;;;;;5.05;2.30;;;;;;;22.08;53.12;101662.41;2306682;76;23094;-74
2023/09/24 04:11:16;;;;;;;3.90;2.70;;;;;;;22.07;53.18;101668.83;2334710;75;50731;-74
2023/09/24 04:14:19;;;;;;;5.70;2.55;;;;;;;22.05;53.26;101667.66;2330127;76;51476;-74
2023/09/24 04:17:21;;;;;;;3.55;2.12;;;;;;;22.07;53.13;101671.53;2307035;76;50299;-74
2023/09/24 04:20:25;;;;;;;3.80;2.17;;;;;;;22.08;53.08;101681.28;2297118;76;50491;-74
2023/09/24 04:23:27;;;;;;;2.15;1.92;;;;;;;22.07;53.08;101682.31;2287122;77;51228;-73
2023/09/24 04:26:30;;;;;;;2.52;2.10;;;;;;;22.06;53.16;101690.05;2307105;76;50419;-74
2023/09/24 04:29:32;;;;;;;4.60;2.37;;;;;;;22.06;53.16;101690.05;2312578;77;50691;-75
2023/09/24 04:32:35;;;;;;;7.40;2.60;;;;;;;22.07;53.09;101701.17;2281145;77;52513;-74
2023/09/24 04:35:37;;;;;;;4.83;2.58;;;;;;;22.06;53.13;101703.52;2312601;77;50335;-72
2023/09/24 04:38:41;;;;;;;4.45;2.55;;;;;;;22.08;52.98;101704.19;2307045;76;51572;-72
2023/09/24 04:41:43;;;;;;;4.30;2.25;;;;;;;22.07;53.05;101707.91;2282183;77;22355;-74
2023/09/24 04:44:47;;;;;;;7.40;2.60;;;;;;;22.09;53.11;101715.28;2306867;76;51582;-75
2023/09/24 04:47:49;;;;;;;6.22;2.65;;;;;;;22.07;53.19;101721.39;2281518;77;52326;-74
2023/09/24 04:50:54;;;;;;;7.03;2.47;;;;;;;22.08;53.16;101725.23;2259954;76;51698;-75
2023/09/24 04:53:56;;;;;;;;;;;;;;;22.08;53.13;101729.80;2319436;76;50750;-75
2023/09/24 04:56:58;;;;;;;11.55;3.00;;;;;;;22.11;53.08;101732.13;2324511;76;50377;-75
2023/09/24 05:00:01;;;;;;;36.30;12.47;;;;;;;22.09;53.08;101733.67;2279745;76;51694;-74
2023/09/24 05:03:03;;;;;;;29.35;10.88;;;;;;;22.10;52.99;101735.33;2265855;77;50196;-75
2023/09/24 05:06:05;;;;;;;40.52;13.00;;;;;;;22.09;53.10;101744.94;2264112;77;52346;-75
2023/09/24 05:09:08;;;;;;;55.43;14.68;;;;;;;22.11;52.96;101755.87;2281698;77;51477;-75
2023/09/24 05:12:12;;;;;;;59.70;17.12;;;;;;;22.12;52.96;101763.47;2307307;77;51522;-75
2023/09/24 05:15:14;;;;;;;49.67;17.10;;;;;;;22.12;52.94;101775.08;2307842;77;22536;-76
2023/09/24 05:18:16;;;;;;;51.28;18.00;;;;;;;22.11;53.05;101768.52;2307551;77;50185;-75
2023/09/24 05:21:19;;;;;;;49.25;18.10;;;;;;;22.12;53.01;101781.83;2306395;75;50199;-75
2023/09/24 05:24:21;;;;;;;53.33;18.00;;;;;;;22.11;53.05;101787.38;2301506;75;52561;-75
2023/09/24 05:27:26;;;;;;;48.95;18.07;;;;;;;22.11;53.07;101794.12;2335623;75;51390;-75
2023/09/24 05:30:27;;;;;;;52.73;17.65;;;;;;;22.12;53.01;101793.13;2326712;75;22285;-75
2023/09/24 05:33:30;;;;;;;50.60;19.05;;;;;;;22.12;53.06;101797.16;2333240;75;50262;-75
2023/09/24 05:36:32;;;;;;;43.92;16.67;;;;;;;22.11;53.10;101803.04;2353340;75;50630;-75
2023/09/24 05:39:35;;;;;;;50.33;17.05;;;;;;;22.11;53.03;101804.39;2333273;75;51748;-75
2023/09/24 05:42:37;;;;;;;44.53;16.05;;;;;;;22.10;53.24;101816.20;2333156;75;51572;-75
2023/09/24 05:45:48;;;;;;;45.08;17.70;;;;;;;22.11;53.22;101821.08;2333275;75;50389;-75
2023/09/24 05:48:50;;;;;;;37.48;14.50;;;;;;;22.11;53.07;101835.90;2324193;74;50963;-72
2023/09/24 05:51:52;;;;;;;21.77;10.25;;;;;;;22.09;52.19;101839.28;2338616;75;50306;-73
2023/09/24 05:54:54;;;;;;;14.63;7.55;;;;;;;22.02;51.20;101846.42;2307590;76;51387;-74
2023/09/24 05:57:56;;;;;;;25.37;9.05;;;;;;;22.00;50.75;101851.14;2281518;77;51402;-73
2023/09/24 06:00:59;;;;;;;28.25;10.30;;;;;;;22.03;50.84;101853.47;2313024;75;51258;-75
2023/09/24 06:04:01;;;;;;;32.20;9.80;;;;;;;22.06;51.21;101858.50;2255177;77;51155;-75
2023/09/24 06:07:03;;;;;;;33.88;9.28;;;;;;;22.08;51.28;101849.73;2288365;76;50394;-74
2023/09/24 06:10:06;;;;;;;32.28;8.75;;;;;;;22.07;51.66;101860.20;2286347;77;50266;-74
2023/09/24 06:13:08;;;;;;;25.23;9.00;;;;;;;22.05;51.92;101866.27;2278509;77;50266;-76
2023/09/24 06:16:10;;;;;;;28.55;9.00;;;;;;;22.03;51.99;101870.99;2286350;77;50593;-75
2023/09/24 06:19:12;;;;;;;20.40;8.78;;;;;;;22.05;51.90;101882.44;2278809;76;50607;-75
2023/09/24 06:22:15;;;;;;;33.55;9.33;;;;;;;22.02;52.06;101884.98;2321759;75;51540;-71
2023/09/24 06:25:17;;;;;;;39.18;9.23;;;;;;;22.07;52.03;101884.46;2302200;76;50316;-75
2023/09/24 06:28:19;;;;;;;37.90;9.25;;;;;;;22.15;52.30;101891.98;2265904;76;52388;-75
2023/09/24 06:31:22;;;;;;;38.58;9.05;;;;;;;22.12;52.21;101891.52;2291003;76;49967;-74
2023/09/24 06:34:26;;;;;;;35.05;8.90;;;;;;;22.14;52.26;101888.97;2311738;75;51595;-73
2023/09/24 06:37:28;;;;;;;39.20;9.75;;;;;;;22.25;52.09;101891.80;2338164;75;50717;-73
2023/09/24 06:40:30;;;;;;;32.17;8.20;;;;;;;22.20;52.23;101898.75;2338069;75;51443;-75
2023/09/24 06:43:33;;;;;;;26.30;9.18;;;;;;;22.18;52.25;101899.72;2328695;75;49939;-74
2023/09/24 06:46:35;;;;;;;24.75;7.92;;;;;;;22.28;52.19;101907.62;2289854;76;51608;-74
2023/09/24 06:49:37;;;;;;;31.10;8.55;;;;;;;22.17;52.21;101910.18;2303762;76;50667;-73
2023/09/24 06:52:39;;;;;;;17.20;6.85;;;;;;;22.13;52.30;101908.00;2316197;76;51558;-74
2023/09/24 06:55:42;;;;;;;27.05;7.92;;;;;;;22.12;52.33;101909.03;2292535;76;50625;-74
2023/09/24 06:58:44;;;;;;;30.35;9.05;;;;;;;22.10;52.57;101917.80;2327788;75;50286;-75
2023/09/24 07:01:47;;;;;;;19.62;7.67;;;;;;;22.11;52.40;101923.51;2273332;76;51675;-74
2023/09/24 07:04:50;;;;;;;18.95;8.03;;;;;;;22.10;52.44;101920.49;2308474;76;50243;-73
2023/09/24 07:07:52;;;;;;;18.80;7.22;;;;;;;22.08;52.56;101925.21;2284281;76;52605;-73
2023/09/24 07:11:31;;;;;;;14.40;6.47;;;;;;;22.09;52.45;101937.66;2293755;76;50273;-73
2023/09/24 07:14:33;;;;;;;18.77;7.17;;;;;;;22.10;52.50;101947.45;2319358;75;22810;-73
2023/09/24 07:17:35;;;;;;;17.85;7.47;;;;;;;22.08;52.55;101943.56;2256536;77;49966;-73
2023/09/24 07:20:38;;;;;;;29.48;7.47;;;;;;;22.08;53.11;101949.47;2290869;75;52483;-73
2023/09/24 07:23:40;;;;;;;21.00;6.95;;;;;;;22.08;53.71;101954.86;2328529;76;50233;-74
2023/09/24 07:26:46;;;;;;;21.10;7.78;;;;;;;22.07;53.25;101962.12;2280147;76;52745;-73
2023/09/24 07:29:48;;;;;;;16.82;7.05;;;;;;;22.09;53.11;101955.19;2296773;76;51553;-73
2023/09/24 07:32:50;;;;;;;21.30;7.15;;;;;;;22.09;53.15;101956.05;2327399;74;50394;-73
2023/09/24 07:35:53;;;;;;;20.43;7.10;;;;;;;22.09;53.20;101957.88;2305588;76;50923;-73
2023/09/24 07:38:55;;;;;;;25.25;7.00;;;;;;;22.08;53.26;101953.52;2318625;76;51477;-73
2023/09/24 07:41:57;;;;;;;22.58;7.35;;;;;;;22.07;53.25;101954.55;2283725;76;52247;-73
2023/09/24 07:44:59;;;;;;;20.15;6.62;;;;;;;22.06;53.34;101954.19;2309256;76;50320;-73
2023/09/24 07:48:01;;;;;;;19.60;7.17;;;;;;;22.10;53.55;101963.11;2309754;76;50202;-73
2023/09/24 07:51:04;;;;;;;21.85;7.12;;;;;;;22.08;53.91;101963.78;2309752;75;50323;-75
2023/09/24 07:54:07;;;;;;;27.52;10.95;;;;;;;22.09;54.31;101968.18;2330317;76;50218;-73
2023/09/24 07:57:09;;;;;;;30.17;13.75;;;;;;;22.12;53.73;101981.81;2311517;76;50785;-73
2023/09/24 08:00:13;;;;;;;25.00;9.10;;;;;;;22.11;54.07;101978.77;2300056;76;52294;-72
2023/09/24 08:03:16;;;;;;;30.45;9.28;;;;;;;22.12;53.94;101984.00;2295332;75;51614;-74
2023/09/24 08:06:19;;;;;;;27.35;8.33;;;;;;;22.13;53.91;101990.22;2294369;76;51609;-74
2023/09/24 08:09:21;;;;;;;29.42;9.08;;;;;;;22.15;53.94;101993.59;2318014;76;50386;-74
2023/09/24 08:12:24;;;;;;;23.02;7.47;;;;;;;22.14;53.87;101998.63;2304387;76;50732;-74
2023/09/24 08:15:26;;;;;;;25.75;7.62;;;;;;;22.15;53.83;102000.33;2279612;76;50059;-74
2023/09/24 08:18:28;;;;;;;27.05;7.72;;;;;;;22.18;53.84;101998.63;2290555;76;50031;-74
2023/09/24 08:21:31;;;;;;;24.57;7.42;;;;;;;22.14;53.98;102004.02;2262497;76;52432;-73
2023/09/24 08:24:33;;;;;;;18.87;6.90;;;;;;;22.17;54.04;102010.44;2286519;76;51390;-74
2023/09/24 08:27:35;;;;;;;19.32;7.25;;;;;;;22.17;53.91;102007.75;2299648;77;51329;-73
2023/09/24 08:30:38;;;;;;;20.00;6.08;;;;;;;22.21;53.82;102008.26;2273517;76;52347;-74
2023/09/24 08:33:40;;;;;;;16.00;6.30;;;;;;;22.20;53.91;102019.56;2304425;76;49968;-74
2023/09/24 08:36:42;;;;;;;22.13;6.33;;;;;;;22.22;53.86;102022.06;2299880;75;51636;-74
2023/09/24 08:39:45;;;;;;;20.30;6.70;;;;;;;22.20;53.93;102024.11;2292356;76;52409;-74
2023/09/24 08:42:48;;;;;;;18.00;6.25;;;;;;;22.20;53.92;102021.42;2290664;76;51347;-74
2023/09/24 08:45:50;;;;;;;18.27;5.60;;;;;;;22.18;53.87;102022.38;2316132;75;50414;-74
2023/09/24 08:48:53;;;;;;;24.65;6.85;;;;;;;22.21;53.62;102019.87;2316097;76;50382;-74
2023/09/24 08:51:55;;;;;;;26.35;6.12;;;;;;;22.18;53.70;102029.13;2316194;76;50765;-75
2023/09/24 08:54:57;;;;;;;23.02;6.58;;;;;;;22.15;53.78;102022.73;2301319;76;51568;-74
2023/09/24 08:57:59;;;;;;;19.92;5.28;;;;;;;22.21;53.76;102032.52;2316673;76;51384;-75
2023/09/24 09:01:02;;;;;;;29.95;6.05;;;;;;;22.24;53.65;102034.86;2290823;76;51396;-74
2023/09/24 09:04:04;;;;;;;18.00;6.15;;;;;;;22.23;53.75;102039.94;2276218;78;52702;-73
2023/09/24 09:07:12;;;;;;;21.15;6.00;;;;;;;22.21;53.84;102036.05;2324185;75;50355;-73
2023/09/24 09:10:14;;;;;;;31.33;6.87;;;;;;;22.23;53.71;102042.12;2314673;75;50339;-74
2023/09/24 09:13:22;;;;;;;25.62;6.58;;;;;;;22.23;53.74;102037.23;2320754;75;50244;-75
2023/09/24 09:16:20;;;;;;;23.20;6.17;;;;;;;22.24;53.67;102040.26;2326252;74;22256;-75
2023/09/24 09:19:23;;;;;;;19.45;5.70;;;;;;;22.24;53.66;102045.65;2314212;76;50432;-74
2023/09/24 09:22:28;;;;;;;14.63;5.42;;;;;;;22.22;53.73;102039.10;2335335;74;52225;-73
2023/09/24 09:25:30;;;;;;;;;;;;;;;22.22;53.59;102037.75;2331621;76;51486;-74
2023/09/24 09:28:34;;;;;;;15.75;4.92;;;;;;;22.25;53.45;102032.01;2316422;76;51506;-75
2023/09/24 09:31:40;;;;;;;16.00;5.55;;;;;;;22.23;53.58;102029.16;2329399;75;50444;-75
2023/09/24 09:34:43;;;;;;;;;;;;;;;22.22;53.59;102036.41;2327613;75;50857;-74
2023/09/24 09:37:47;;;;;;;22.58;4.97;;;;;;;22.26;53.40;102028.28;2307721;76;51221;-74
2023/09/24 09:40:55;;;;;;;18.92;4.90;;;;;;;22.21;53.54;102031.17;2320042;76;50658;-75
2023/09/24 09:43:57;;;;;;;17.70;4.97;;;;;;;22.21;53.52;102027.13;2315442;76;50241;-74
2023/09/24 09:47:00;;;;;;;17.05;5.12;;;;;;;22.20;53.55;102030.34;2265950;76;52522;-74
2023/09/24 09:50:02;;;;;;;21.40;5.55;;;;;;;22.18;53.54;102026.42;2341321;74;51561;-74
2023/09/24 09:53:08;;;;;;;17.57;5.08;;;;;;;22.19;53.52;102036.73;2335512;76;50440;-74
2023/09/24 09:56:11;;;;;;;15.98;4.85;;;;;;;22.19;53.45;102029.98;2341325;75;51012;-74
2023/09/24 09:59:14;;;;;;;18.35;4.65;;;;;;;22.19;53.44;102028.64;2332371;75;50603;-74
2023/09/24 10:02:16;;;;;;;17.98;4.35;;;;;;;22.20;53.36;102030.34;2329240;75;51159;-75
2023/09/24 10:05:18;;;;;;;18.67;5.28;;;;;;;22.20;53.29;102031.69;2340910;74;50607;-75
2023/09/24 10:08:47;;;;;;;14.25;4.28;;;;;;;22.22;53.19;102033.71;2336419;75;51413;-75
2023/09/24 10:11:51;;;;;;;18.75;5.03;;;;;;;22.21;53.18;102033.87;2269967;76;52504;-74
2023/09/24 10:14:56;;;;;;;18.17;5.30;;;;;;;22.21;53.14;102032.52;2323622;76;50311;-74
2023/09/24 10:18:16;;;;;;;16.73;5.17;;;;;;;22.20;53.11;102028.99;2268470;76;22969;-74
2023/09/24 10:21:36;;;;;;;12.47;4.42;;;;;;;22.20;53.09;102028.16;2318774;76;51863;-73
2023/09/24 10:24:39;;;;;;;17.23;5.22;;;;;;;22.20;53.03;102034.39;2317466;76;51564;-74
2023/09/24 10:27:45;;;;;;;19.92;4.60;;;;;;;22.20;53.01;102036.25;2283757;75;51214;-75
2023/09/24 10:31:05;;;;;;;;;;;;;;;22.20;52.96;102033.55;2327968;76;50755;-72
2023/09/24 10:34:07;;;;;;;14.00;4.37;;;;;;;22.18;53.06;102033.68;2328839;75;50627;-72
2023/09/24 10:37:12;;;;;;;14.15;4.47;;;;;;;22.19;53.00;102038.08;2263193;76;52463;-75
2023/09/24 10:40:16;;;;;;;14.00;4.40;;;;;;;22.17;53.05;102026.62;2324526;75;50263;-76
2023/09/24 10:43:18;;;;;;;15.58;4.72;;;;;;;22.16;53.07;102033.00;2328062;75;51692;-74
2023/09/24 10:46:30;;;;;;;12.60;4.72;;;;;;;22.14;53.04;102030.98;2299608;76;50111;-76
2023/09/24 10:49:32;;;;;;;6.58;3.72;;;;;;;22.15;53.00;102039.42;2328014;76;50889;-75
2023/09/24 10:53:00;;;;;;;7.65;2.55;;;;;;;22.19;51.89;102034.03;2293875;76;51426;-76
2023/09/24 10:56:01;;;;;;;5.65;3.27;;;;;;;22.16;50.81;102034.35;2327287;75;21769;-76
2023/09/24 10:59:03;;;;;;;4.90;2.47;;;;;;;22.18;49.96;102036.38;2327515;75;51534;-76
2023/09/24 11:02:16;;;;;;;8.33;3.12;;;;;;;22.16;49.43;102034.35;2269756;76;50901;-76
2023/09/24 11:05:18;;;;;;;6.25;2.35;;;;;;;22.18;49.28;102025.59;2327976;76;51607;-76
2023/09/24 11:08:23;;;;;;;7.20;3.08;;;;;;;22.16;48.79;102031.66;2277859;75;50562;-75
2023/09/24 11:11:25;;;;;;;9.53;2.93;;;;;;;22.17;48.40;102028.80;2306450;76;50889;-76
2023/09/24 11:14:27;;;;;;;7.05;2.80;;;;;;;22.21;48.50;102025.78;2318322;76;50344;-75
2023/09/24 11:17:29;;;;;;;8.18;3.05;;;;;;;22.18;48.23;102036.38;2305466;75;50085;-75
2023/09/24 11:20:33;;;;;;;7.03;2.80;;;;;;;22.17;47.92;102038.23;2307930;76;51550;-75
2023/09/24 11:23:38;;;;;;;9.35;3.08;;;;;;;22.19;47.41;102039.42;2316143;76;50269;-75
2023/09/24 11:26:40;;;;;;;7.12;2.22;;;;;;;22.20;47.50;102045.68;2289734;76;51209;-75
2023/09/24 11:29:59;;;;;;;4.95;2.20;;;;;;;22.20;47.28;102038.43;2294592;76;50528;-75
2023/09/24 11:33:02;;;;;;;5.33;2.10;;;;;;;22.17;47.45;102038.23;2317501;76;51863;-76
2023/09/24 11:36:06;;;;;;;7.28;2.02;;;;;;;22.12;47.94;102035.22;2265872;76;52409;-74
2023/09/24 11:39:10;;;;;;;5.42;1.90;;;;;;;22.07;47.41;102032.71;2326080;76;51078;-76
2023/09/24 11:42:19;;;;;;;4.08;2.42;;;;;;;22.06;47.56;102029.66;2291163;76;22319;-76
2023/09/24 11:45:42;;;;;;;3.87;2.30;;;;;;;22.01;47.91;102029.34;2294937;75;51584;-73
2023/09/24 11:48:44;;;;;;;4.80;2.40;;;;;;;21.91;47.39;102035.78;2309920;76;51529;-77
2023/09/24 11:51:47;;;;;;;6.28;2.20;;;;;;;21.89;47.43;102035.10;2264909;76;51022;-75
2023/09/24 11:54:49;;;;;;;26.93;3.05;;;;;;;21.91;46.58;102042.52;2289270;76;50614;-75
2023/09/24 11:57:51;;;;;;;14.60;2.37;;;;;;;21.89;46.45;102038.31;2298666;76;51622;-74
2023/09/24 12:00:57;;;;;;;48.13;3.77;;;;;;;21.89;46.26;102045.88;2263675;76;51454;-74
2023/09/24 12:03:59;;;;;;;33.20;3.75;;;;;;;21.95;47.08;102031.70;2309172;75;50226;-78
2023/09/24 12:07:02;;;;;;;27.13;2.77;;;;;;;21.91;46.39;102043.86;2297162;77;50469;-76
2023/09/24 12:10:05;;;;;;;21.93;3.10;;;;;;;21.88;45.59;102029.36;2301992;76;51657;-77
2023/09/24 12:13:08;;;;;;;28.62;3.50;;;;;;;21.93;45.82;102028.85;2295512;76;50236;-76
2023/09/24 12:16:11;;;;;;;28.02;3.20;;;;;;;21.89;46.60;102028.37;2263768;76;51157;-75
2023/09/24 12:19:13;;;;;;;17.85;3.45;;;;;;;21.93;47.34;102027.50;2307257;75;50174;-76
2023/09/24 12:22:17;;;;;;;21.62;3.60;;;;;;;21.94;47.85;102025.16;2298987;76;50041;-76
2023/09/24 12:25:19;;;;;;;21.82;3.85;;;;;;;21.92;48.29;102025.32;2292888;76;50781;-75
2023/09/24 12:28:21;;;;;;;22.58;4.10;;;;;;;21.96;48.18;102023.11;2286526;76;51438;-75
2023/09/24 12:31:23;;;;;;;28.52;3.75;;;;;;;21.94;49.02;102021.13;2260806;76;51411;-74
2023/09/24 12:34:26;;;;;;;12.95;3.05;;;;;;;21.94;48.87;102026.00;2298504;76;51543;-74
2023/09/24 12:37:28;;;;;;;26.85;3.62;;;;;;;21.95;48.68;102026.31;2304746;76;51533;-73
2023/09/24 12:40:31;;;;;;;18.15;3.95;;;;;;;21.96;49.23;102028.50;2256938;76;51832;-74
2023/09/24 12:43:33;;;;;;;18.17;3.83;;;;;;;21.98;49.12;102032.39;2318141;75;50356;-74
2023/09/24 12:46:35;;;;;;;24.35;3.30;;;;;;;22.01;49.16;102034.73;2289884;76;50526;-73
2023/09/24 12:49:37;;;;;;;20.35;3.47;;;;;;;22.00;49.34;102034.41;2260816;76;52849;-73
2023/09/24 12:52:41;;;;;;;21.85;4.12;;;;;;;22.02;49.08;102040.47;2270939;76;51416;-73
2023/09/24 12:55:45;;;;;;;21.70;3.22;;;;;;;22.01;49.40;102037.42;2317258;76;52035;-74
2023/09/24 12:58:49;;;;;;;27.77;3.95;;;;;;;22.03;49.34;102038.10;2312454;76;22499;-76
2023/09/24 13:01:51;;;;;;;32.03;3.87;;;;;;;22.08;49.65;102028.99;2295331;76;50283;-74
2023/09/24 13:04:53;;;;;;;28.07;3.92;;;;;;;22.10;49.46;102031.02;2289270;76;52438;-74
2023/09/24 13:07:56;;;;;;;25.80;4.12;;;;;;;22.10;49.39;102031.02;2300751;76;52450;-74
2023/09/24 13:10:58;;;;;;;37.40;5.30;;;;;;;22.08;49.02;102031.69;2317032;76;51442;-72
2023/09/24 13:14:00;;;;;;;26.57;5.55;;;;;;;22.10;49.30;102029.66;2266258;75;52511;-71
2023/09/24 13:17:03;;;;;;;37.60;6.20;;;;;;;22.10;49.31;102021.58;2291359;76;50088;-75
2023/09/24 13:20:06;;;;;;;33.90;6.03;;;;;;;22.11;49.28;102024.59;2319008;76;51577;-74
2023/09/24 13:23:09;;;;;;;53.58;8.08;;;;;;;22.10;49.34;102025.63;2291062;76;50700;-75
2023/09/24 13:26:11;;;;;;;75.40;8.75;;;;;;;22.10;49.32;102031.02;2278264;78;51531;-75
2023/09/24 13:29:13;;;;;;;85.95;9.35;;;;;;;22.16;49.40;102027.10;2266535;77;51436;-75
2023/09/24 13:32:18;;;;;;;68.72;7.80;;;;;;;22.19;50.07;102035.38;2266525;77;50208;-73
2023/09/24 13:35:20;;;;;;;64.35;9.40;;;;;;;22.22;50.95;102032.36;2292085;76;28360;-74
2023/09/24 13:38:22;;;;;;;77.87;11.80;;;;;;;22.21;51.99;102022.58;2292304;76;50398;-75
2023/09/24 13:41:25;;;;;;;52.43;9.38;;;;;;;22.22;51.89;102026.11;2253879;76;50719;-76
2023/09/24 13:44:27;;;;;;;64.37;10.08;;;;;;;22.23;51.85;102015.16;2333607;74;51578;-74
2023/09/24 13:47:29;;;;;;;51.95;9.15;;;;;;;22.23;52.08;102018.37;2307265;76;50730;-74
2023/09/24 13:50:31;;;;;;;59.53;8.28;;;;;;;22.24;52.13;102015.48;2307137;76;51675;-77
2023/09/24 13:53:33;;;;;;;49.48;7.90;;;;;;;22.27;52.09;102021.03;2306861;76;51474;-75
2023/09/24 13:56:36;;;;;;;50.78;8.70;;;;;;;22.31;52.54;102015.12;2307051;76;52418;-77
2023/09/24 13:59:38;;;;;;;48.90;7.62;;;;;;;22.35;52.65;102005.67;2306408;76;50223;-77
2023/09/24 14:02:42;;;;;;;70.55;8.10;;;;;;;22.39;53.09;102011.03;2306865;76;50690;-75
2023/09/24 14:05:44;;;;;;;80.17;9.05;;;;;;;22.50;54.28;102015.71;2320166;75;51602;-77
2023/09/24 14:12:25;;;;;;;72.22;8.15;;;;;;;22.68;55.61;102010.05;2319698;76;21721;-76